Terminal Aerodrome Forecast
Issued by NWS Austin/San Antonio, TX

Home | Current Version | Previous Version | Text Only | Print | Product List | Glossary On
Versions: 1 2 3 4 5 6 7 8 9 10 11 12 13 14 15 16 17 18 19 20 21 22 23 24 25 26 27 28
000
FTUS44 KEWX 041148
TAFSAT
TAF
KSAT 041148Z 0412/0518 VRB03KT 4SM BR BKN005 OVC015
      TEMPO 0412/0416 SCT006 OVC015
     FM042100 09010KT P6SM OVC025
     FM050200 04015G25KT P6SM OVC015 PROB30 0502/0506 4SM SHRA
     FM050800 01020G30KT 4SM SHRA OVC015=

USA.gov is the U.S. government's official web portal to all federal, state and local government web resources and services.